This is the latest recevied weather packets stored in our database for station/object KB9HGI-1. If no packets are shown the sender has not sent any weather packets the latest 10 day(s).
| Time | Temp. | Humidity | Pressure | Rain* | Wind** | Luminosity | Snow |
|---|---|---|---|---|---|---|---|
| 1777949480 | 23.33° C | 66% | 998 hPa | 0 mm | - | 0 W/m² | - |
| 1777942178 | 25.56° C | 53% | 997 hPa | 0 mm | - | 18 W/m² | - |
| 1777941547 | 26.11° C | 53% | 996.6 hPa | 0 mm | - | 37 W/m² | - |
| 1777940283 | 26.11° C | 51% | 996.6 hPa | 0 mm | - | 47 W/m² | - |
| 1777939651 | 26.11° C | 50% | 996.6 hPa | 0 mm | - | 42 W/m² | - |
| 1777938450 | 27.22° C | 49% | 997 hPa | 0 mm | - | 39 W/m² | - |
| 1777928177 | 27.78° C | 47% | 998 hPa | 0 mm | - | 745 W/m² | - |
| 1777926344 | 27.22° C | 48% | 998.3 hPa | 0 mm | - | 807 W/m² | - |
| 1777925143 | 26.67° C | 49% | 998.6 hPa | 0 mm | - | 849 W/m² | - |
| 1777920307 | 26.11° C | 49% | 998.6 hPa | 0 mm | - | 967 W/m² | - |
| 1777916672 | 25.56° C | 51% | 999.3 hPa | 0 mm | - | 974 W/m² | - |
| 1777911835 | 23.89° C | 52% | 1000 hPa | 0 mm | - | 886 W/m² | - |
| 1777907599 | 22.22° C | 59% | 1000.7 hPa | 0 mm | - | 735 W/m² | - |
| 1777906398 | 21.67° C | 61% | 1000.3 hPa | 0 mm | - | 679 W/m² | - |
| 1777905135 | 20.56° C | 63% | 1000.7 hPa | 0 mm | - | 555 W/m² | - |
| 1777898527 | 17.22° C | 74% | 1001.4 hPa | 0 mm | - | 97 W/m² | - |
| 1777894260 | 18.33° C | 68% | 1000.3 hPa | 0 mm | - | 40 W/m² | - |
| 1777893028 | 15° C | 85% | 1000.7 hPa | 0 mm | - | 21 W/m² | - |
| 1777886959 | 14.44° C | 86% | 1003 hPa | 0 mm | - | 0 W/m² | - |
| 1777886359 | 13.89° C | 88% | 1003 hPa | 0 mm | - | 0 W/m² | - |
| 1777883925 | 13.89° C | 90% | 1002.7 hPa | 0.25 mm | - | 0 W/m² | - |
| 1777882123 | 13.89° C | 89% | 1003.7 hPa | 0.51 mm | - | 0 W/m² | - |
| 1777881522 | 14.44° C | 89% | 1003.7 hPa | 0.51 mm | - | 0 W/m² | - |
| 1777880922 | 14.44° C | 88% | 1004.1 hPa | 0.25 mm | - | 0 W/m² | - |
| 1777880321 | 14.44° C | 88% | 1004.1 hPa | 0.25 mm | - | 0 W/m² | - |
* Rain latest hour (hover to see other rain measurements)
** Current wind speed in m/s (hover to see current wind gust speed)